Terminal Aerodrome Forecast
Issued by NWS Sterling, VA

Current Version | Previous Version | Graphics & Text | Print | Product List | Glossary On
Versions: 1 2 3 4 5 6 7 8 9 10 11 12 13 14 15
000
FTUS41 KLWX 222327
TAFMRB
TAF
KMRB 222327Z 2300/2324 27010G20KT P6SM FEW050
     FM230600 26006KT P6SM SCT050
     FM231400 27010G18KT P6SM BKN050
     FM231600 28015G25KT P6SM BKN050
     FM232300 30010KT P6SM BKN050=

USA.gov is the U.S. government's official web portal to all federal, state and local government web resources and services.